Time;durP1;ratioP1;P1;durP2;ratioP2;P2;SDS_P1;SDS_P2;PMS_P1;PMS_P2;Temp;Humidity;BMP_temperature;BMP_pressure;BME280_temperature;BME280_humidity;BME280_pressure;Samples;Min_cycle;Max_cycle;Signal;HPM_P1;HPM_P2
2023/08/18 00:01:29;;;;;;;11.87;10.77;;;;;;;20.04;100.00;101667.03;5235044;28;20021;-74
2023/08/18 00:04:00;;;;;;;12.10;10.93;;;;;;;20.12;100.00;101663.72;5250559;28;20033;-75
2023/08/18 00:06:31;;;;;;;13.70;11.23;;;;;;;19.96;100.00;101664.16;5241865;28;20051;-71
2023/08/18 00:09:04;;;;;;;10.70;9.63;;;;;;;19.91;100.00;101655.75;5247552;28;20041;-72
2023/08/18 00:11:35;;;;;;;13.23;10.57;;;;;;;20.06;100.00;101658.91;5248017;28;20032;-73
2023/08/18 00:14:07;;;;;;;16.17;10.30;;;;;;;19.77;100.00;101660.47;5253673;28;20032;-73
2023/08/18 00:16:39;;;;;;;11.47;10.37;;;;;;;19.81;100.00;101653.88;5254762;28;20025;-71
2023/08/18 00:19:10;;;;;;;13.17;9.83;;;;;;;19.92;100.00;101652.97;5256441;28;20116;-72
2023/08/18 00:21:42;;;;;;;10.20;9.17;;;;;;;19.82;100.00;101658.25;5256915;28;20021;-72
2023/08/18 00:24:13;;;;;;;10.57;9.47;;;;;;;19.97;100.00;101649.88;5252825;28;20104;-72
2023/08/18 00:26:45;;;;;;;10.73;9.73;;;;;;;19.81;100.00;101645.91;5258314;28;20023;-71
2023/08/18 00:29:17;;;;;;;12.37;9.77;;;;;;;19.80;100.00;101648.72;5253512;28;20143;-73
2023/08/18 00:31:48;;;;;;;16.13;9.53;;;;;;;19.97;100.00;101647.22;5255856;28;20111;-71
2023/08/18 00:34:19;;;;;;;15.00;9.50;;;;;;;19.78;100.00;101635.56;5256856;28;21092;-71
2023/08/18 00:36:51;;;;;;;11.37;9.37;;;;;;;19.72;100.00;101649.41;5247595;28;20036;-72
2023/08/18 00:39:22;;;;;;;10.40;9.27;;;;;;;19.84;100.00;101634.19;5263014;28;20463;-72
2023/08/18 00:41:54;;;;;;;9.17;8.27;;;;;;;19.89;100.00;101639.94;5240975;28;20037;-71
2023/08/18 00:44:25;;;;;;;9.63;8.60;;;;;;;19.69;100.00;101633.69;5237747;28;20021;-71
2023/08/18 00:46:56;;;;;;;9.07;8.17;;;;;;;19.87;100.00;101628.59;5252939;28;20041;-71
2023/08/18 00:49:28;;;;;;;10.80;9.07;;;;;;;19.72;100.00;101644.09;5238428;28;20411;-71
2023/08/18 00:51:59;;;;;;;10.50;8.67;;;;;;;19.68;100.00;101637.34;5257057;28;20025;-70
2023/08/18 00:54:31;;;;;;;9.17;7.97;;;;;;;19.70;100.00;101646.88;5254502;28;20031;-73
2023/08/18 00:57:02;;;;;;;12.33;8.50;;;;;;;19.57;100.00;101644.41;5256236;28;20080;-71
2023/08/18 00:59:34;;;;;;;9.67;7.83;;;;;;;19.60;100.00;101643.34;5258374;28;20025;-73
2023/08/18 01:02:05;;;;;;;9.77;8.77;;;;;;;19.44;100.00;101646.44;5263544;28;20086;-71
2023/08/18 01:04:37;;;;;;;9.97;8.87;;;;;;;19.39;100.00;101630.88;5277524;28;20070;-71
2023/08/18 01:07:08;;;;;;;8.97;7.77;;;;;;;19.52;100.00;101633.34;5259296;28;20075;-71
2023/08/18 01:09:40;;;;;;;9.90;8.77;;;;;;;19.39;100.00;101628.22;5277133;28;20124;-71
2023/08/18 01:12:28;;;;;;;11.97;8.63;;;;;;;19.59;100.00;101633.66;5269574;28;20530;-72
2023/08/18 01:15:14;;;;;;;11.17;7.83;;;;;;;19.49;100.00;101636.28;5283184;22;20140;-71
2023/08/18 01:17:50;;;;;;;9.53;8.47;;;;;;;19.50;100.00;101642.41;5230332;28;20565;-71
2023/08/18 01:20:22;;;;;;;9.53;8.17;;;;;;;19.39;100.00;101651.31;5233709;28;20159;-71
2023/08/18 01:23:01;;;;;;;9.63;8.63;;;;;;;19.51;100.00;101639.66;5231569;28;20037;-71
2023/08/18 01:25:32;;;;;;;13.10;8.70;;;;;;;19.50;100.00;101624.66;5234631;28;20140;-72
2023/08/18 01:28:06;;;;;;;11.53;8.13;;;;;;;19.57;100.00;101628.47;5233364;28;20799;-71
2023/08/18 01:30:50;;;;;;;8.23;7.43;;;;;;;19.75;100.00;101613.72;5234624;28;20040;-71
2023/08/18 01:33:31;;;;;;;;;;;;;;;20.07;100.00;101621.53;5233073;28;20033;-71
2023/08/18 01:36:07;;;;;;;12.90;7.67;;;;;;;19.40;100.00;101611.34;5233896;28;20342;-73
2023/08/18 01:38:42;;;;;;;9.70;8.37;;;;;;;19.41;100.00;101602.38;5233988;28;20395;-71
2023/08/18 01:41:18;;;;;;;9.43;8.53;;;;;;;19.27;100.00;101606.22;5235409;28;20535;-70
2023/08/18 01:43:50;;;;;;;9.13;8.27;;;;;;;19.31;100.00;101610.31;5214511;28;20028;-71
2023/08/18 01:46:22;;;;;;;9.23;7.60;;;;;;;19.42;100.00;101596.13;5234219;28;20721;-71
2023/08/18 01:48:53;;;;;;;9.03;7.90;;;;;;;19.37;100.00;101606.31;5232399;28;20025;-71
2023/08/18 01:51:24;;;;;;;8.80;7.90;;;;;;;19.36;100.00;101609.09;5235685;28;20034;-70
2023/08/18 01:53:55;;;;;;;10.87;9.40;;;;;;;19.39;100.00;101614.94;5232635;28;20025;-71
2023/08/18 01:56:27;;;;;;;9.00;7.97;;;;;;;19.32;100.00;101606.66;5234786;28;20068;-71
2023/08/18 01:58:59;;;;;;;8.63;7.83;;;;;;;19.45;100.00;101600.31;5232445;28;20028;-73
2023/08/18 02:01:30;;;;;;;8.80;7.87;;;;;;;19.36;100.00;101593.16;5231549;28;20400;-74
2023/08/18 02:04:02;;;;;;;7.93;7.23;;;;;;;19.33;100.00;101589.78;5231738;28;20037;-71
2023/08/18 02:06:34;;;;;;;11.00;7.50;;;;;;;19.27;100.00;101586.81;5235588;28;20034;-73
2023/08/18 02:09:05;;;;;;;9.30;8.40;;;;;;;19.25;100.00;101589.59;5235239;28;20053;-70
2023/08/18 02:11:36;;;;;;;8.40;7.67;;;;;;;19.28;100.00;101597.31;5213568;28;20033;-72
2023/08/18 02:14:08;;;;;;;9.77;8.87;;;;;;;19.28;100.00;101596.44;5234083;28;20134;-71
2023/08/18 02:16:41;;;;;;;10.23;8.73;;;;;;;19.20;100.00;101594.47;5232683;28;20467;-71
2023/08/18 02:19:12;;;;;;;9.77;8.73;;;;;;;19.06;100.00;101592.94;5234206;28;20029;-70
2023/08/18 02:21:43;;;;;;;9.90;9.00;;;;;;;19.23;100.00;101595.03;5213590;28;20033;-72
2023/08/18 02:24:15;;;;;;;9.20;8.33;;;;;;;19.12;100.00;101591.59;5234553;28;20120;-70
2023/08/18 02:26:46;;;;;;;10.37;8.30;;;;;;;19.06;100.00;101588.47;5231907;28;20519;-71
2023/08/18 02:29:17;;;;;;;12.40;9.57;;;;;;;19.28;100.00;101592.00;5214983;28;20036;-71
2023/08/18 02:31:49;;;;;;;10.90;9.23;;;;;;;19.26;100.00;101580.66;5233022;28;20038;-70
2023/08/18 02:34:20;;;;;;;12.63;10.23;;;;;;;19.12;100.00;101578.31;5233259;28;20373;-71
2023/08/18 02:36:51;;;;;;;10.17;8.77;;;;;;;19.19;100.00;101590.09;5234660;28;20029;-70
2023/08/18 02:39:23;;;;;;;10.10;9.07;;;;;;;19.16;100.00;101590.38;5234292;28;20029;-71
2023/08/18 02:41:55;;;;;;;10.10;9.00;;;;;;;19.25;100.00;101589.59;5234455;28;20025;-71
2023/08/18 02:44:26;;;;;;;10.97;9.77;;;;;;;19.02;100.00;101571.13;5215629;28;20045;-71
2023/08/18 02:46:57;;;;;;;13.77;10.20;;;;;;;19.16;100.00;101577.09;5231739;28;20033;-71
2023/08/18 02:49:29;;;;;;;11.47;9.73;;;;;;;19.04;100.00;101571.00;5233916;28;20155;-70
2023/08/18 02:52:00;;;;;;;10.90;9.90;;;;;;;19.10;100.00;101584.59;5230795;28;20032;-74
2023/08/18 02:54:31;;;;;;;10.57;9.47;;;;;;;19.12;100.00;101583.63;5233595;28;20724;-71
2023/08/18 02:57:03;;;;;;;11.27;9.87;;;;;;;19.02;100.00;101580.91;5231251;28;20034;-70
2023/08/18 02:59:34;;;;;;;14.57;10.00;;;;;;;18.98;100.00;101578.50;5232432;28;20022;-71
2023/08/18 03:02:05;;;;;;;11.43;10.23;;;;;;;18.96;100.00;101568.97;5232030;28;20109;-71
2023/08/18 03:04:37;;;;;;;11.13;9.83;;;;;;;19.21;100.00;101581.06;5232272;28;20079;-70
2023/08/18 03:07:08;;;;;;;10.77;9.70;;;;;;;18.96;100.00;101577.78;5229601;28;20098;-71
2023/08/18 03:09:39;;;;;;;11.47;9.73;;;;;;;19.23;100.00;101589.72;5233605;28;20396;-72
2023/08/18 03:12:11;;;;;;;12.83;11.47;;;;;;;19.03;100.00;101580.75;5232309;28;20033;-72
2023/08/18 03:14:42;;;;;;;10.90;9.80;;;;;;;18.97;100.00;101563.53;5231150;28;20045;-71
2023/08/18 03:17:13;;;;;;;15.77;11.37;;;;;;;18.98;100.00;101556.44;5213295;28;20041;-71
2023/08/18 03:19:45;;;;;;;11.27;10.10;;;;;;;19.12;100.00;101571.22;5232988;28;20037;-71
2023/08/18 03:22:16;;;;;;;12.13;9.57;;;;;;;19.08;100.00;101580.38;5230018;28;20025;-73
2023/08/18 03:24:47;;;;;;;11.93;10.60;;;;;;;19.12;100.00;101575.66;5216034;28;20382;-71
2023/08/18 03:27:19;;;;;;;11.30;9.57;;;;;;;19.26;100.00;101580.66;5212206;28;20041;-71
2023/08/18 03:29:51;;;;;;;15.43;10.73;;;;;;;19.14;100.00;101579.91;5232335;28;20041;-71
2023/08/18 03:32:22;;;;;;;11.73;10.40;;;;;;;19.02;100.00;101576.44;5229678;28;20033;-73
2023/08/18 03:34:56;;;;;;;11.73;10.33;;;;;;;19.08;100.00;101575.91;5228602;28;20029;-71
2023/08/18 03:37:27;;;;;;;11.48;9.70;;;;;;;18.94;100.00;101557.66;5227236;28;20034;-71
2023/08/18 03:39:58;;;;;;;11.60;10.50;;;;;;;18.93;100.00;101570.09;5221859;28;20036;-71
2023/08/18 03:42:30;;;;;;;12.17;10.63;;;;;;;19.09;100.00;101566.97;5232680;28;20024;-71
2023/08/18 03:45:01;;;;;;;12.00;10.80;;;;;;;19.01;100.00;101561.47;5224609;28;20036;-73
2023/08/18 03:47:33;;;;;;;11.63;10.53;;;;;;;18.97;100.00;101578.66;5230480;28;20030;-74
2023/08/18 03:50:05;;;;;;;11.33;10.27;;;;;;;19.05;100.00;101577.97;5210228;28;20119;-71
2023/08/18 03:52:36;;;;;;;13.13;11.93;;;;;;;18.77;100.00;101567.88;5216755;28;20029;-73
2023/08/18 03:55:09;;;;;;;12.57;11.30;;;;;;;18.80;100.00;101572.94;5214498;28;20044;-71
2023/08/18 03:57:40;;;;;;;12.87;11.67;;;;;;;18.90;100.00;101577.47;5217764;28;20140;-73
2023/08/18 04:00:12;;;;;;;12.83;11.50;;;;;;;18.78;100.00;101574.84;5211273;28;20110;-71
2023/08/18 04:02:44;;;;;;;13.70;12.20;;;;;;;18.77;100.00;101570.53;5225346;28;20545;-71
2023/08/18 04:05:15;;;;;;;14.77;11.93;;;;;;;18.94;100.00;101568.25;5230385;28;20381;-72
2023/08/18 04:07:47;;;;;;;15.10;12.83;;;;;;;18.86;100.00;101567.13;5232947;28;20101;-71
2023/08/18 04:10:18;;;;;;;13.13;11.73;;;;;;;18.92;100.00;101564.91;5217955;28;20060;-71
2023/08/18 04:12:49;;;;;;;13.40;12.10;;;;;;;19.00;100.00;101573.06;5213980;28;20029;-71
2023/08/18 04:15:20;;;;;;;13.57;11.63;;;;;;;18.71;100.00;101579.03;5225152;28;20128;-73
2023/08/18 04:17:52;;;;;;;13.40;11.93;;;;;;;18.83;100.00;101574.50;5215444;28;20121;-71
2023/08/18 04:20:23;;;;;;;13.03;11.73;;;;;;;18.79;100.00;101571.25;5214829;28;20491;-71
2023/08/18 04:22:54;;;;;;;14.77;12.67;;;;;;;18.58;100.00;101560.63;5219889;28;20032;-73
2023/08/18 04:25:26;;;;;;;15.17;12.83;;;;;;;18.58;100.00;101557.97;5232272;28;20670;-71
2023/08/18 04:27:57;;;;;;;14.17;12.33;;;;;;;18.56;100.00;101552.78;5233191;28;20042;-71
2023/08/18 04:30:28;;;;;;;13.77;12.30;;;;;;;18.57;100.00;101551.81;5231517;28;20037;-72
2023/08/18 04:33:00;;;;;;;12.87;11.57;;;;;;;18.62;100.00;101548.78;5224948;28;20029;-73
2023/08/18 04:35:31;;;;;;;14.87;12.70;;;;;;;18.59;100.00;101555.19;5216766;28;20026;-72
2023/08/18 04:38:02;;;;;;;13.87;12.47;;;;;;;18.50;100.00;101542.69;5198968;28;20119;-74
2023/08/18 04:40:34;;;;;;;13.83;12.37;;;;;;;18.50;100.00;101550.66;5229707;28;20060;-71
2023/08/18 04:43:05;;;;;;;15.07;11.97;;;;;;;18.56;100.00;101560.75;5226767;28;21769;-72
2023/08/18 04:45:36;;;;;;;13.87;11.60;;;;;;;18.50;100.00;101554.13;5194230;28;20483;-72
2023/08/18 04:48:08;;;;;;;13.67;12.23;;;;;;;18.56;100.00;101565.19;5217428;28;20038;-71
2023/08/18 04:50:39;;;;;;;15.23;12.67;;;;;;;18.56;100.00;101567.84;5213456;28;20034;-71
2023/08/18 04:53:10;;;;;;;15.03;11.93;;;;;;;18.71;100.00;101565.75;5220136;28;20080;-73
2023/08/18 04:55:42;;;;;;;16.07;12.27;;;;;;;18.64;100.00;101569.88;5202356;28;20025;-72
2023/08/18 04:58:14;;;;;;;13.80;11.47;;;;;;;18.67;100.00;101566.97;5232056;28;20033;-72
2023/08/18 05:00:46;;;;;;;13.00;11.40;;;;;;;18.65;100.00;101566.25;5229439;28;20026;-72
2023/08/18 05:03:17;;;;;;;13.00;11.50;;;;;;;18.64;100.00;101570.69;5235955;28;20095;-73
2023/08/18 05:05:59;;;;;;;16.80;11.63;;;;;;;18.90;100.00;101567.72;5230723;28;20040;-71
2023/08/18 05:08:32;;;;;;;14.07;11.87;;;;;;;18.73;100.00;101561.13;5234590;28;20164;-74
2023/08/18 05:11:05;;;;;;;15.80;12.50;;;;;;;18.62;100.00;101570.84;5222567;28;20512;-71
2023/08/18 05:13:38;;;;;;;13.43;11.80;;;;;;;18.65;100.00;101547.69;5201474;28;20622;-72
2023/08/18 05:16:09;;;;;;;16.37;12.93;;;;;;;18.62;100.00;101556.75;5218114;28;20696;-71
2023/08/18 05:18:42;;;;;;;14.47;11.43;;;;;;;18.72;100.00;101554.16;5215356;28;20048;-70
2023/08/18 05:21:13;;;;;;;15.07;12.17;;;;;;;18.70;100.00;101551.63;5205376;28;20036;-72
2023/08/18 05:23:44;;;;;;;16.23;13.63;;;;;;;18.63;100.00;101550.47;5215361;28;20029;-71
2023/08/18 05:26:16;;;;;;;16.60;13.03;;;;;;;18.77;100.00;101553.75;5224031;28;20052;-71
2023/08/18 05:28:47;;;;;;;16.67;13.67;;;;;;;18.89;100.00;101543.94;5235012;28;20417;-71
2023/08/18 05:31:19;;;;;;;16.97;14.10;;;;;;;18.72;100.00;101538.25;5220947;28;20037;-70
2023/08/18 05:33:50;;;;;;;15.87;12.70;;;;;;;18.97;100.00;101549.44;5217986;28;20033;-72
2023/08/18 05:36:21;;;;;;;16.77;14.30;;;;;;;18.91;100.00;101544.66;5231470;28;20030;-72
2023/08/18 05:38:53;;;;;;;16.77;14.97;;;;;;;18.85;100.00;101551.34;5211740;28;20139;-73
2023/08/18 05:41:24;;;;;;;17.10;13.73;;;;;;;18.96;100.00;101543.28;5234983;28;20034;-71
2023/08/18 05:43:55;;;;;;;19.80;15.53;;;;;;;18.75;100.00;101548.59;5227690;28;20511;-72
2023/08/18 05:46:27;;;;;;;17.13;15.33;;;;;;;18.75;100.00;101545.94;5234749;28;20564;-72
2023/08/18 05:48:58;;;;;;;16.57;14.63;;;;;;;18.90;100.00;101550.94;5220767;28;20042;-72
2023/08/18 05:51:29;;;;;;;18.57;16.67;;;;;;;18.68;100.00;101558.03;5219651;28;20037;-72
2023/08/18 05:54:03;;;;;;;18.23;16.37;;;;;;;18.60;100.00;101546.28;5229267;28;20038;-72
2023/08/18 05:56:34;;;;;;;20.63;15.68;;;;;;;18.67;100.00;101557.22;5215834;28;20030;-71
2023/08/18 05:59:06;;;;;;;16.73;14.77;;;;;;;18.81;100.00;101548.09;5218890;28;20380;-71
2023/08/18 06:01:37;;;;;;;18.20;15.60;;;;;;;18.64;100.00;101536.22;5215536;28;20064;-74
2023/08/18 06:04:09;;;;;;;17.87;15.33;;;;;;;18.80;100.00;101556.19;5228894;28;20502;-72
2023/08/18 06:06:40;;;;;;;18.70;16.80;;;;;;;18.64;100.00;101561.94;5231831;28;20025;-71
2023/08/18 06:09:11;;;;;;;20.20;15.77;;;;;;;18.61;100.00;101558.56;5215747;28;20033;-72
2023/08/18 06:11:42;;;;;;;17.60;15.47;;;;;;;18.66;100.00;101560.00;5220892;28;20041;-72
2023/08/18 06:14:14;;;;;;;16.73;14.93;;;;;;;18.71;100.00;101553.31;5212865;28;20053;-71
2023/08/18 06:16:45;;;;;;;20.87;16.13;;;;;;;18.78;100.00;101568.72;5230435;28;20092;-72
2023/08/18 06:19:16;;;;;;;17.10;15.30;;;;;;;18.75;100.00;101564.50;5221533;28;20038;-71
2023/08/18 06:21:48;;;;;;;19.97;16.83;;;;;;;18.79;100.00;101573.91;5215326;28;20091;-73
2023/08/18 06:24:20;;;;;;;16.83;15.10;;;;;;;18.79;100.00;101563.28;5208704;28;20036;-72
2023/08/18 06:26:52;;;;;;;17.10;15.33;;;;;;;18.84;100.00;101565.56;5221219;28;20049;-73
2023/08/18 06:29:23;;;;;;;19.57;16.63;;;;;;;18.84;100.00;101555.78;5215788;28;20147;-73
2023/08/18 06:31:55;;;;;;;18.83;16.93;;;;;;;18.99;100.00;101560.75;5251267;28;20835;-72
2023/08/18 06:34:26;;;;;;;20.20;17.37;;;;;;;18.96;100.00;101550.41;5255274;28;20083;-72
2023/08/18 06:36:58;;;;;;;20.47;17.60;;;;;;;19.05;100.00;101554.94;5255495;28;20029;-73
2023/08/18 06:39:29;;;;;;;20.13;17.90;;;;;;;19.06;100.00;101550.47;5255138;28;20463;-72
2023/08/18 06:42:01;;;;;;;20.57;18.37;;;;;;;18.99;100.00;101555.44;5233405;28;20112;-76
2023/08/18 06:44:34;;;;;;;20.90;18.70;;;;;;;18.82;100.00;101554.22;5253448;28;20033;-73
2023/08/18 06:47:06;;;;;;;21.05;18.90;;;;;;;19.08;100.00;101548.50;5254717;28;20029;-73
2023/08/18 06:49:37;;;;;;;22.97;18.93;;;;;;;18.98;100.00;101543.16;5225524;28;20424;-72
2023/08/18 06:52:09;;;;;;;23.33;19.57;;;;;;;18.99;100.00;101544.81;5228783;28;20025;-71
2023/08/18 06:54:40;;;;;;;22.70;20.13;;;;;;;18.93;100.00;101558.63;5233571;28;20025;-71
2023/08/18 06:57:11;;;;;;;25.97;19.23;;;;;;;18.85;100.00;101538.06;5230067;28;20095;-71
2023/08/18 06:59:43;;;;;;;21.80;18.63;;;;;;;19.17;100.00;101542.44;5227154;28;20499;-73
2023/08/18 07:02:14;;;;;;;20.37;17.73;;;;;;;19.21;100.00;101549.19;5235615;28;20029;-71
2023/08/18 07:04:45;;;;;;;20.30;18.23;;;;;;;19.16;100.00;101545.25;5242708;28;20051;-72
2023/08/18 07:07:17;;;;;;;21.33;19.17;;;;;;;19.10;100.00;101542.13;5212296;28;20486;-74
2023/08/18 07:09:49;;;;;;;22.17;19.47;;;;;;;19.18;100.00;101543.31;5216060;28;20030;-71
2023/08/18 07:12:21;;;;;;;20.53;18.27;;;;;;;19.13;100.00;101541.03;5228679;28;20034;-72
2023/08/18 07:14:53;;;;;;;22.30;18.17;;;;;;;19.10;100.00;101528.84;5220809;28;20075;-72
2023/08/18 07:17:24;;;;;;;20.50;18.30;;;;;;;19.10;100.00;101522.69;5227492;28;20041;-72
2023/08/18 07:19:55;;;;;;;20.50;18.30;;;;;;;19.12;100.00;101525.22;5212734;28;20097;-70
2023/08/18 07:22:27;;;;;;;21.13;19.13;;;;;;;19.26;100.00;101529.34;5229971;28;20116;-71
2023/08/18 07:24:58;;;;;;;19.30;17.30;;;;;;;19.38;100.00;101532.75;5228529;28;20152;-71
2023/08/18 07:27:29;;;;;;;21.30;18.63;;;;;;;19.30;100.00;101528.97;5226947;28;20044;-71
2023/08/18 07:30:01;;;;;;;22.07;19.40;;;;;;;19.21;100.00;101535.06;5237896;28;20361;-73
2023/08/18 07:32:32;;;;;;;21.30;19.00;;;;;;;19.44;100.00;101537.56;5233161;28;20022;-71
2023/08/18 07:35:08;;;;;;;20.70;18.57;;;;;;;19.39;100.00;101537.09;5226545;28;20021;-71
2023/08/18 07:37:40;;;;;;;21.10;18.87;;;;;;;19.39;100.00;101545.06;5229651;28;20028;-72
2023/08/18 07:40:12;;;;;;;21.87;19.60;;;;;;;19.36;100.00;101534.72;5217894;28;20030;-71
2023/08/18 07:42:44;;;;;;;21.77;19.43;;;;;;;19.57;100.00;101538.16;5224156;28;20055;-70
2023/08/18 07:45:15;;;;;;;22.50;20.10;;;;;;;19.39;100.00;101531.81;5218498;28;20053;-71
2023/08/18 07:47:47;;;;;;;22.77;18.60;;;;;;;19.39;100.00;101531.81;5227658;28;20220;-71
2023/08/18 07:50:19;;;;;;;19.83;17.80;;;;;;;19.40;100.00;101536.13;5218284;28;20025;-72
2023/08/18 07:52:50;;;;;;;20.47;18.40;;;;;;;19.38;100.00;101544.22;5217768;28;20029;-71
2023/08/18 07:55:22;;;;;;;21.37;18.97;;;;;;;19.52;100.00;101547.50;5205478;28;20053;-71
2023/08/18 07:57:53;;;;;;;20.37;18.30;;;;;;;19.36;100.00;101554.13;5224931;28;20040;-71
2023/08/18 08:00:26;;;;;;;21.37;19.27;;;;;;;19.41;100.00;101545.78;5220147;28;20026;-71
2023/08/18 08:02:57;;;;;;;19.93;17.97;;;;;;;19.58;100.00;101550.44;5195581;28;20038;-71
2023/08/18 08:05:29;;;;;;;21.67;19.00;;;;;;;19.39;100.00;101548.56;5241934;28;20495;-71
2023/08/18 08:08:00;;;;;;;21.63;19.33;;;;;;;19.44;100.00;101550.84;5249608;28;20037;-73
2023/08/18 08:10:32;;;;;;;20.13;18.03;;;;;;;19.49;100.00;101545.09;5214744;28;20065;-71
2023/08/18 08:13:03;;;;;;;21.90;19.70;;;;;;;19.55;100.00;101558.69;5230612;28;20037;-71
2023/08/18 08:15:34;;;;;;;23.03;19.47;;;;;;;19.52;100.00;101548.34;5232230;28;20065;-71
2023/08/18 08:18:07;;;;;;;23.40;19.40;;;;;;;19.58;100.00;101545.13;5231467;28;20049;-72
2023/08/18 08:20:39;;;;;;;23.13;20.40;;;;;;;19.54;100.00;101549.06;5197067;28;20100;-71
2023/08/18 08:23:11;;;;;;;22.67;20.33;;;;;;;19.64;100.00;101556.19;5240509;28;20109;-70
2023/08/18 08:25:42;;;;;;;25.57;21.80;;;;;;;19.66;100.00;101551.59;5230598;28;20104;-71
2023/08/18 08:28:14;;;;;;;22.90;20.33;;;;;;;19.66;100.00;101546.28;5229793;28;20044;-72
2023/08/18 08:30:45;;;;;;;25.13;21.57;;;;;;;19.73;100.00;101547.44;5232359;28;20021;-71
2023/08/18 08:33:16;;;;;;;23.35;20.98;;;;;;;19.72;100.00;101564.34;5223022;28;20083;-72
2023/08/18 08:35:48;;;;;;;25.50;21.60;;;;;;;19.79;100.00;101560.16;5228970;28;20034;-71
2023/08/18 08:38:19;;;;;;;22.67;20.33;;;;;;;19.75;100.00;101566.75;5216588;28;20603;-71
2023/08/18 08:40:54;;;;;;;21.93;19.33;;;;;;;19.93;100.00;101566.09;5227436;28;20033;-67
2023/08/18 08:43:26;;;;;;;21.10;18.90;;;;;;;19.69;100.00;101580.53;5218697;28;20099;-72
2023/08/18 08:46:01;;;;;;;19.87;17.87;;;;;;;20.00;100.00;101577.00;5219677;28;20041;-67
2023/08/18 08:48:37;;;;;;;19.58;17.45;;;;;;;19.95;100.00;101574.75;5222112;28;20040;-67
2023/08/18 08:51:11;;;;;;;19.00;17.20;;;;;;;19.99;100.00;101570.84;5255367;28;20033;-69
2023/08/18 08:53:49;;;;;;;19.02;17.10;;;;;;;20.02;100.00;101572.41;5238097;28;20100;-69
2023/08/18 08:56:24;;;;;;;20.03;17.93;;;;;;;20.00;100.00;101580.50;5227030;28;20069;-68
2023/08/18 08:58:56;;;;;;;20.17;17.97;;;;;;;19.90;100.00;101579.63;5218952;28;20029;-68
2023/08/18 09:01:27;;;;;;;19.87;17.90;;;;;;;19.94;100.00;101575.72;5209045;28;20041;-68
2023/08/18 09:03:59;;;;;;;19.23;17.23;;;;;;;19.94;100.00;101565.09;5232731;28;20807;-69
2023/08/18 09:06:30;;;;;;;18.67;16.75;;;;;;;19.98;100.00;101578.97;5220297;28;20032;-72
2023/08/18 09:09:02;;;;;;;19.83;17.83;;;;;;;20.00;100.00;101575.19;5246287;28;20099;-69
2023/08/18 09:11:42;;;;;;;18.67;16.70;;;;;;;20.25;100.00;101578.34;5239883;28;20550;-71
2023/08/18 09:14:15;;;;;;;20.15;18.25;;;;;;;20.11;100.00;101576.09;5247261;28;20045;-69
2023/08/18 09:16:47;;;;;;;21.58;19.27;;;;;;;20.29;100.00;101579.75;5233801;28;20092;-68
2023/08/18 09:19:18;;;;;;;20.17;18.17;;;;;;;20.21;100.00;101586.75;5230436;28;20041;-67
2023/08/18 09:21:50;;;;;;;20.20;18.20;;;;;;;20.24;100.00;101582.00;5232342;28;20048;-71
2023/08/18 09:24:21;;;;;;;20.73;18.63;;;;;;;20.06;100.00;101572.03;5225116;28;20025;-68
2023/08/18 09:26:53;;;;;;;20.70;18.35;;;;;;;20.14;100.00;101573.16;5224441;28;20038;-66
2023/08/18 09:29:24;;;;;;;20.75;18.65;;;;;;;20.31;100.00;101569.81;5230804;28;20124;-67
2023/08/18 09:31:55;;;;;;;20.58;18.38;;;;;;;20.35;100.00;101565.03;5218588;28;20195;-70
2023/08/18 09:34:27;;;;;;;21.02;18.90;;;;;;;20.47;100.00;101555.13;5210673;28;20036;-67
2023/08/18 09:36:58;;;;;;;29.20;20.02;;;;;;;20.63;100.00;101564.38;5233415;28;20030;-67
2023/08/18 09:39:30;;;;;;;22.70;20.60;;;;;;;20.61;100.00;101566.31;5211875;28;20502;-69
2023/08/18 09:42:02;;;;;;;22.57;20.30;;;;;;;20.61;100.00;101567.16;5233889;28;20026;-68
2023/08/18 09:44:33;;;;;;;23.13;20.73;;;;;;;20.53;100.00;101572.31;5244679;28;20029;-66
2023/08/18 09:47:08;;;;;;;21.27;18.95;;;;;;;20.64;100.00;101555.38;5236913;28;20033;-67
2023/08/18 09:49:42;;;;;;;24.98;22.52;;;;;;;20.68;100.00;101564.78;5255620;28;20028;-68
2023/08/18 09:52:16;;;;;;;23.05;20.90;;;;;;;20.64;100.00;101560.69;5236984;28;20029;-69
2023/08/18 09:55:17;;;;;;;23.77;21.27;;;;;;;20.64;100.00;101560.69;5255521;28;20483;-68
2023/08/18 09:58:04;;;;;;;23.67;21.33;;;;;;;20.89;100.00;101563.75;5207915;28;20065;-67
2023/08/18 10:00:41;;;;;;;23.85;21.40;;;;;;;20.88;100.00;101560.25;5214152;28;20029;-66
2023/08/18 10:03:17;;;;;;;23.42;21.13;;;;;;;20.73;100.00;101561.69;5214874;28;20037;-69
2023/08/18 10:05:49;;;;;;;24.70;22.00;;;;;;;20.92;100.00;101552.81;5218171;28;20427;-68
2023/08/18 10:08:22;;;;;;;26.02;23.42;;;;;;;20.97;100.00;101561.25;5229478;28;20032;-68
2023/08/18 10:10:54;;;;;;;26.48;23.70;;;;;;;21.14;100.00;101566.81;5225509;28;20034;-68
2023/08/18 10:13:26;;;;;;;28.42;25.38;;;;;;;20.86;100.00;101550.72;5226214;28;20049;-68
2023/08/18 10:15:58;;;;;;;30.45;27.30;;;;;;;21.07;100.00;101544.41;5217879;28;20041;-67
2023/08/18 10:18:30;;;;;;;29.55;26.25;;;;;;;20.79;100.00;101538.00;5213541;28;20588;-67
2023/08/18 10:21:01;;;;;;;28.70;25.80;;;;;;;21.05;100.00;101531.22;5213268;28;20069;-69
2023/08/18 10:23:33;;;;;;;26.42;23.85;;;;;;;21.11;100.00;101536.00;5227266;28;20516;-68
2023/08/18 10:26:05;;;;;;;30.23;27.23;;;;;;;21.22;100.00;101545.63;5197549;28;20018;-67
2023/08/18 10:28:38;;;;;;;31.42;28.40;;;;;;;21.30;100.00;101534.22;5218424;28;20053;-69
2023/08/18 10:31:13;;;;;;;29.08;26.38;;;;;;;21.25;100.00;101521.38;5221067;28;20017;-67
2023/08/18 10:33:48;;;;;;;27.23;24.63;;;;;;;21.30;100.00;101525.41;5219757;28;20143;-67
2023/08/18 10:36:22;;;;;;;27.67;24.85;;;;;;;21.50;100.00;101523.50;5226424;28;20561;-67
2023/08/18 10:38:54;;;;;;;27.75;24.98;;;;;;;21.74;100.00;101525.59;5228789;28;20033;-67
2023/08/18 10:41:28;;;;;;;26.52;23.83;;;;;;;21.85;100.00;101527.22;5222989;28;20453;-68
2023/08/18 10:43:59;;;;;;;28.02;25.20;;;;;;;21.91;100.00;101520.47;5230538;28;20103;-68
2023/08/18 10:46:35;;;;;;;26.77;24.27;;;;;;;22.10;100.00;101513.31;5232775;28;20025;-68
2023/08/18 10:49:06;;;;;;;25.85;23.25;;;;;;;21.87;100.00;101516.44;5233266;28;20076;-69
2023/08/18 10:51:38;;;;;;;24.73;22.40;;;;;;;22.09;100.00;101511.66;5214694;28;20120;-68
2023/08/18 10:54:09;;;;;;;24.98;22.42;;;;;;;22.14;100.00;101511.19;5218263;28;20400;-67
2023/08/18 10:56:41;;;;;;;25.10;22.48;;;;;;;22.17;100.00;101510.88;5212644;28;20030;-68
2023/08/18 10:59:12;;;;;;;25.60;23.05;;;;;;;22.39;100.00;101503.41;5211417;28;20108;-68
2023/08/18 11:01:43;;;;;;;25.10;22.77;;;;;;;22.30;100.00;101502.50;5212626;28;20059;-68
2023/08/18 11:04:15;;;;;;;25.05;22.67;;;;;;;22.55;100.00;101505.34;5212013;28;20032;-68
2023/08/18 11:06:47;;;;;;;25.27;22.90;;;;;;;22.63;100.00;101500.09;5231936;28;20027;-70
2023/08/18 11:09:18;;;;;;;24.80;22.30;;;;;;;22.64;100.00;101493.75;5231865;28;20103;-68
2023/08/18 11:11:50;;;;;;;23.98;21.70;;;;;;;22.82;100.00;101488.38;5214243;28;20033;-68
2023/08/18 11:14:21;;;;;;;24.45;22.05;;;;;;;23.11;100.00;101489.00;5230252;28;20052;-70
2023/08/18 11:16:52;;;;;;;25.33;23.05;;;;;;;23.13;100.00;101491.53;5231165;28;20030;-68
2023/08/18 11:19:23;;;;;;;22.90;20.90;;;;;;;23.11;100.00;101483.66;5212924;28;20401;-68
2023/08/18 11:21:57;;;;;;;22.15;19.98;;;;;;;23.39;100.00;101485.31;5232330;28;20079;-68
2023/08/18 11:24:28;;;;;;;24.40;22.10;;;;;;;23.57;100.00;101477.19;5215492;28;20110;-70
2023/08/18 11:27:01;;;;;;;25.05;22.63;;;;;;;23.55;100.00;101473.84;5211700;28;20026;-69